sensor_id;sensor_type;location;lat;lon;timestamp;pressure;altitude;pressure_sealevel;temperature;humidity
24666;BME280;29726;53.532;-1.478;2023-04-15T00:01:44;100069.13;;;12.46;100.00
24666;BME280;29726;53.532;-1.478;2023-04-15T00:04:28;100070.88;;;12.44;100.00
24666;BME280;29726;53.532;-1.478;2023-04-15T00:07:14;100072.16;;;12.43;100.00
24666;BME280;29726;53.532;-1.478;2023-04-15T00:09:58;100054.94;;;12.30;100.00
24666;BME280;29726;53.532;-1.478;2023-04-15T00:12:42;100049.81;;;12.28;100.00
24666;BME280;29726;53.532;-1.478;2023-04-15T00:15:26;100073.88;;;12.40;100.00
24666;BME280;29726;53.532;-1.478;2023-04-15T00:18:10;100078.69;;;12.40;100.00
24666;BME280;29726;53.532;-1.478;2023-04-15T00:20:55;100082.00;;;12.38;100.00
24666;BME280;29726;53.532;-1.478;2023-04-15T00:23:39;100076.34;;;12.33;100.00
24666;BME280;29726;53.532;-1.478;2023-04-15T00:26:23;100079.69;;;12.37;100.00
24666;BME280;29726;53.532;-1.478;2023-04-15T00:29:07;100084.53;;;12.36;100.00
24666;BME280;29726;53.532;-1.478;2023-04-15T00:31:52;100086.25;;;12.34;100.00
24666;BME280;29726;53.532;-1.478;2023-04-15T00:34:36;100110.47;;;12.37;100.00
24666;BME280;29726;53.532;-1.478;2023-04-15T00:37:20;100116.56;;;12.35;100.00
24666;BME280;29726;53.532;-1.478;2023-04-15T00:40:04;100120.34;;;12.32;100.00
24666;BME280;29726;53.532;-1.478;2023-04-15T00:42:49;100118.59;;;12.35;100.00
24666;BME280;29726;53.532;-1.478;2023-04-15T00:45:33;100070.09;;;12.03;100.00
24666;BME280;29726;53.532;-1.478;2023-04-15T00:48:17;100089.75;;;12.09;100.00
24666;BME280;29726;53.532;-1.478;2023-04-15T00:51:01;100120.56;;;12.29;100.00
24666;BME280;29726;53.532;-1.478;2023-04-15T00:53:45;100120.19;;;12.21;100.00
24666;BME280;29726;53.532;-1.478;2023-04-15T00:56:29;100132.50;;;12.29;100.00
24666;BME280;29726;53.532;-1.478;2023-04-15T00:59:13;100133.75;;;12.28;100.00
24666;BME280;29726;53.532;-1.478;2023-04-15T01:01:57;100135.53;;;12.26;100.00
24666;BME280;29726;53.532;-1.478;2023-04-15T01:04:41;100144.69;;;12.26;100.00
24666;BME280;29726;53.532;-1.478;2023-04-15T01:07:25;100159.47;;;12.27;100.00
24666;BME280;29726;53.532;-1.478;2023-04-15T01:10:10;100158.09;;;12.22;100.00
24666;BME280;29726;53.532;-1.478;2023-04-15T01:12:54;100171.63;;;12.24;100.00
24666;BME280;29726;53.532;-1.478;2023-04-15T01:15:39;100186.94;;;12.28;100.00
24666;BME280;29726;53.532;-1.478;2023-04-15T01:18:23;100186.19;;;12.28;100.00
24666;BME280;29726;53.532;-1.478;2023-04-15T01:21:07;100177.13;;;12.18;100.00
24666;BME280;29726;53.532;-1.478;2023-04-15T01:23:52;100168.88;;;12.09;100.00
24666;BME280;29726;53.532;-1.478;2023-04-15T01:26:39;100198.34;;;12.25;100.00
24666;BME280;29726;53.532;-1.478;2023-04-15T01:29:22;100200.88;;;12.23;100.00
24666;BME280;29726;53.532;-1.478;2023-04-15T01:32:06;100191.41;;;12.20;100.00
24666;BME280;29726;53.532;-1.478;2023-04-15T01:34:50;100206.66;;;12.19;100.00
24666;BME280;29726;53.532;-1.478;2023-04-15T01:37:35;100216.88;;;12.22;100.00
24666;BME280;29726;53.532;-1.478;2023-04-15T01:40:19;100200.69;;;12.12;100.00
24666;BME280;29726;53.532;-1.478;2023-04-15T01:43:04;100214.50;;;12.15;100.00
24666;BME280;29726;53.532;-1.478;2023-04-15T01:45:47;100223.63;;;12.16;100.00
24666;BME280;29726;53.532;-1.478;2023-04-15T01:48:31;100214.22;;;12.13;100.00
24666;BME280;29726;53.532;-1.478;2023-04-15T01:51:16;100222.38;;;12.17;100.00
24666;BME280;29726;53.532;-1.478;2023-04-15T01:54:00;100235.91;;;12.18;100.00
24666;BME280;29726;53.532;-1.478;2023-04-15T01:56:44;100235.63;;;12.16;100.00
24666;BME280;29726;53.532;-1.478;2023-04-15T01:59:29;100220.41;;;12.03;100.00
24666;BME280;29726;53.532;-1.478;2023-04-15T02:02:14;100238.59;;;12.13;100.00
24666;BME280;29726;53.532;-1.478;2023-04-15T02:04:58;100235.81;;;12.13;100.00
24666;BME280;29726;53.532;-1.478;2023-04-15T02:07:42;100233.41;;;12.06;100.00
24666;BME280;29726;53.532;-1.478;2023-04-15T02:10:26;100253.38;;;12.13;100.00
24666;BME280;29726;53.532;-1.478;2023-04-15T02:13:10;100250.59;;;12.13;100.00
24666;BME280;29726;53.532;-1.478;2023-04-15T02:15:54;100253.56;;;12.10;100.00
24666;BME280;29726;53.532;-1.478;2023-04-15T02:18:38;100264.56;;;12.13;100.00
24666;BME280;29726;53.532;-1.478;2023-04-15T02:21:21;100241.69;;;12.00;100.00
24666;BME280;29726;53.532;-1.478;2023-04-15T02:24:06;100250.09;;;12.00;100.00
24666;BME280;29726;53.532;-1.478;2023-04-15T02:26:50;100257.53;;;12.03;100.00
24666;BME280;29726;53.532;-1.478;2023-04-15T02:29:34;100264.88;;;12.01;100.00
24666;BME280;29726;53.532;-1.478;2023-04-15T02:32:18;100278.00;;;12.09;100.00
24666;BME280;29726;53.532;-1.478;2023-04-15T02:35:04;100276.91;;;12.07;100.00
24666;BME280;29726;53.532;-1.478;2023-04-15T02:37:48;100282.81;;;12.09;100.00
24666;BME280;29726;53.532;-1.478;2023-04-15T02:40:32;100278.94;;;12.06;100.00
24666;BME280;29726;53.532;-1.478;2023-04-15T02:43:16;100276.34;;;12.03;100.00
24666;BME280;29726;53.532;-1.478;2023-04-15T02:46:00;100286.75;;;12.02;100.00
24666;BME280;29726;53.532;-1.478;2023-04-15T02:48:45;100279.81;;;11.98;100.00
24666;BME280;29726;53.532;-1.478;2023-04-15T02:51:29;100281.66;;;12.01;100.00
24666;BME280;29726;53.532;-1.478;2023-04-15T02:54:16;100282.34;;;11.96;100.00
24666;BME280;29726;53.532;-1.478;2023-04-15T02:57:00;100297.19;;;12.02;100.00
24666;BME280;29726;53.532;-1.478;2023-04-15T02:59:44;100296.00;;;11.94;100.00
24666;BME280;29726;53.532;-1.478;2023-04-15T03:02:36;100299.13;;;11.96;100.00
24666;BME280;29726;53.532;-1.478;2023-04-15T03:05:21;100314.94;;;11.99;100.00
24666;BME280;29726;53.532;-1.478;2023-04-15T03:08:08;100307.50;;;11.96;100.00
24666;BME280;29726;53.532;-1.478;2023-04-15T03:10:51;100300.44;;;11.86;100.00
24666;BME280;29726;53.532;-1.478;2023-04-15T03:13:36;100320.72;;;11.95;100.00
24666;BME280;29726;53.532;-1.478;2023-04-15T03:16:22;100325.53;;;11.95;100.00
24666;BME280;29726;53.532;-1.478;2023-04-15T03:19:06;100318.31;;;11.88;100.00
24666;BME280;29726;53.532;-1.478;2023-04-15T03:21:50;100331.50;;;11.88;100.00
24666;BME280;29726;53.532;-1.478;2023-04-15T03:24:34;100345.88;;;11.95;100.00
24666;BME280;29726;53.532;-1.478;2023-04-15T03:27:18;100329.66;;;11.85;100.00
24666;BME280;29726;53.532;-1.478;2023-04-15T03:30:02;100340.41;;;11.86;100.00
24666;BME280;29726;53.532;-1.478;2023-04-15T03:32:47;100345.78;;;11.90;100.00
24666;BME280;29726;53.532;-1.478;2023-04-15T03:35:31;100350.78;;;11.86;100.00
24666;BME280;29726;53.532;-1.478;2023-04-15T03:38:15;100329.25;;;11.63;100.00
24666;BME280;29726;53.532;-1.478;2023-04-15T03:40:59;100369.41;;;11.89;100.00
24666;BME280;29726;53.532;-1.478;2023-04-15T03:43:43;100322.28;;;11.58;100.00
24666;BME280;29726;53.532;-1.478;2023-04-15T03:46:27;100314.41;;;11.57;100.00
24666;BME280;29726;53.532;-1.478;2023-04-15T03:49:12;100367.88;;;11.88;100.00
24666;BME280;29726;53.532;-1.478;2023-04-15T03:51:56;100374.25;;;11.88;100.00
24666;BME280;29726;53.532;-1.478;2023-04-15T03:54:40;100353.97;;;11.79;100.00
24666;BME280;29726;53.532;-1.478;2023-04-15T03:57:24;100376.25;;;11.88;100.00
24666;BME280;29726;53.532;-1.478;2023-04-15T04:00:09;100374.31;;;11.79;100.00
24666;BME280;29726;53.532;-1.478;2023-04-15T04:02:53;100358.69;;;11.73;100.00
24666;BME280;29726;53.532;-1.478;2023-04-15T04:05:37;100372.00;;;11.78;100.00
24666;BME280;29726;53.532;-1.478;2023-04-15T04:08:24;100378.19;;;11.82;99.89
24666;BME280;29726;53.532;-1.478;2023-04-15T04:11:07;100383.78;;;11.82;99.92
24666;BME280;29726;53.532;-1.478;2023-04-15T04:13:51;100375.09;;;11.80;99.95
24666;BME280;29726;53.532;-1.478;2023-04-15T04:16:35;100385.03;;;11.81;99.88
24666;BME280;29726;53.532;-1.478;2023-04-15T04:19:19;100366.59;;;11.74;99.87
24666;BME280;29726;53.532;-1.478;2023-04-15T04:22:03;100372.34;;;11.71;99.91
24666;BME280;29726;53.532;-1.478;2023-04-15T04:24:47;100386.47;;;11.76;99.73
24666;BME280;29726;53.532;-1.478;2023-04-15T04:27:31;100386.25;;;11.65;99.79
24666;BME280;29726;53.532;-1.478;2023-04-15T04:30:15;100398.59;;;11.73;99.72
24666;BME280;29726;53.532;-1.478;2023-04-15T04:32:59;100398.69;;;11.64;99.64
24666;BME280;29726;53.532;-1.478;2023-04-15T04:35:43;100425.81;;;11.73;99.76
24666;BME280;29726;53.532;-1.478;2023-04-15T04:38:28;100419.59;;;11.69;99.63
24666;BME280;29726;53.532;-1.478;2023-04-15T04:41:12;100422.09;;;11.67;99.66
24666;BME280;29726;53.532;-1.478;2023-04-15T04:43:56;100416.09;;;11.59;99.60
24666;BME280;29726;53.532;-1.478;2023-04-15T04:46:40;100444.31;;;11.70;99.69
24666;BME280;29726;53.532;-1.478;2023-04-15T04:49:24;100446.50;;;11.66;99.65
24666;BME280;29726;53.532;-1.478;2023-04-15T04:52:08;100383.38;;;11.28;99.62
24666;BME280;29726;53.532;-1.478;2023-04-15T04:54:53;100449.78;;;11.65;99.66
24666;BME280;29726;53.532;-1.478;2023-04-15T04:57:37;100446.69;;;11.63;99.49
24666;BME280;29726;53.532;-1.478;2023-04-15T05:00:22;100451.81;;;11.64;99.62
24666;BME280;29726;53.532;-1.478;2023-04-15T05:03:07;100457.09;;;11.63;99.50
24666;BME280;29726;53.532;-1.478;2023-04-15T05:05:51;100440.53;;;11.50;99.65
24666;BME280;29726;53.532;-1.478;2023-04-15T05:08:35;100454.78;;;11.61;99.47
24666;BME280;29726;53.532;-1.478;2023-04-15T05:11:19;100458.03;;;11.59;99.48
24666;BME280;29726;53.532;-1.478;2023-04-15T05:14:02;100451.22;;;11.52;99.48
24666;BME280;29726;53.532;-1.478;2023-04-15T05:16:46;100477.13;;;11.61;99.46
24666;BME280;29726;53.532;-1.478;2023-04-15T05:19:30;100472.50;;;11.58;99.40
24666;BME280;29726;53.532;-1.478;2023-04-15T05:22:15;100485.69;;;11.57;99.43
24666;BME280;29726;53.532;-1.478;2023-04-15T05:24:58;100494.56;;;11.56;99.48
24666;BME280;29726;53.532;-1.478;2023-04-15T05:27:43;100501.72;;;11.57;99.42
24666;BME280;29726;53.532;-1.478;2023-04-15T05:30:26;100498.59;;;11.55;99.39
24666;BME280;29726;53.532;-1.478;2023-04-15T05:33:10;100492.44;;;11.42;99.39
24666;BME280;29726;53.532;-1.478;2023-04-15T05:35:55;100503.75;;;11.48;99.48
24666;BME280;29726;53.532;-1.478;2023-04-15T05:38:39;100525.47;;;11.52;99.35
24666;BME280;29726;53.532;-1.478;2023-04-15T05:41:23;100523.59;;;11.50;99.40
24666;BME280;29726;53.532;-1.478;2023-04-15T05:44:06;100545.31;;;11.54;99.51
24666;BME280;29726;53.532;-1.478;2023-04-15T05:46:51;100536.19;;;11.45;99.51
24666;BME280;29726;53.532;-1.478;2023-04-15T05:49:35;100540.25;;;11.44;99.46
24666;BME280;29726;53.532;-1.478;2023-04-15T05:52:20;100540.88;;;11.39;99.28
24666;BME280;29726;53.532;-1.478;2023-04-15T05:55:04;100568.03;;;11.48;99.61
24666;BME280;29726;53.532;-1.478;2023-04-15T05:57:49;100555.81;;;11.36;99.62
24666;BME280;29726;53.532;-1.478;2023-04-15T06:00:33;100581.06;;;11.51;99.52
24666;BME280;29726;53.532;-1.478;2023-04-15T06:03:17;100582.47;;;11.46;99.74
24666;BME280;29726;53.532;-1.478;2023-04-15T06:06:01;100590.69;;;11.50;99.79
24666;BME280;29726;53.532;-1.478;2023-04-15T06:08:46;100591.03;;;11.43;99.73
24666;BME280;29726;53.532;-1.478;2023-04-15T06:11:30;100597.69;;;11.45;99.63
24666;BME280;29726;53.532;-1.478;2023-04-15T06:14:14;100606.72;;;11.49;99.78
24666;BME280;29726;53.532;-1.478;2023-04-15T06:16:58;100613.22;;;11.46;99.79
24666;BME280;29726;53.532;-1.478;2023-04-15T06:19:42;100607.81;;;11.43;99.99
24666;BME280;29726;53.532;-1.478;2023-04-15T06:22:26;100621.16;;;11.48;99.74
24666;BME280;29726;53.532;-1.478;2023-04-15T06:25:10;100614.00;;;11.47;99.89
24666;BME280;29726;53.532;-1.478;2023-04-15T06:27:54;100571.09;;;11.17;99.81
24666;BME280;29726;53.532;-1.478;2023-04-15T06:30:38;100624.41;;;11.46;99.96
24666;BME280;29726;53.532;-1.478;2023-04-15T06:33:23;100631.38;;;11.51;100.00
24666;BME280;29726;53.532;-1.478;2023-04-15T06:36:07;100628.94;;;11.44;100.00
24666;BME280;29726;53.532;-1.478;2023-04-15T06:38:51;100621.19;;;11.39;100.00
24666;BME280;29726;53.532;-1.478;2023-04-15T06:41:35;100617.44;;;11.42;100.00
24666;BME280;29726;53.532;-1.478;2023-04-15T06:44:19;100633.09;;;11.48;100.00
24666;BME280;29726;53.532;-1.478;2023-04-15T06:47:03;100642.56;;;11.51;100.00
24666;BME280;29726;53.532;-1.478;2023-04-15T06:49:47;100637.47;;;11.49;100.00
24666;BME280;29726;53.532;-1.478;2023-04-15T06:52:31;100639.31;;;11.52;100.00
24666;BME280;29726;53.532;-1.478;2023-04-15T06:55:15;100646.16;;;11.51;100.00
24666;BME280;29726;53.532;-1.478;2023-04-15T06:57:59;100642.25;;;11.49;100.00
24666;BME280;29726;53.532;-1.478;2023-04-15T07:00:43;100669.47;;;11.57;100.00
24666;BME280;29726;53.532;-1.478;2023-04-15T07:03:27;100673.50;;;11.56;100.00
24666;BME280;29726;53.532;-1.478;2023-04-15T07:06:12;100672.06;;;11.52;100.00
24666;BME280;29726;53.532;-1.478;2023-04-15T07:08:55;100688.69;;;11.55;100.00
24666;BME280;29726;53.532;-1.478;2023-04-15T07:11:40;100695.06;;;11.56;100.00
24666;BME280;29726;53.532;-1.478;2023-04-15T07:14:24;100693.06;;;11.56;100.00
24666;BME280;29726;53.532;-1.478;2023-04-15T07:17:08;100701.47;;;11.56;100.00
24666;BME280;29726;53.532;-1.478;2023-04-15T07:19:52;100697.41;;;11.57;100.00
24666;BME280;29726;53.532;-1.478;2023-04-15T07:22:36;100702.66;;;11.55;100.00
24666;BME280;29726;53.532;-1.478;2023-04-15T07:25:20;100721.78;;;11.65;100.00
24666;BME280;29726;53.532;-1.478;2023-04-15T07:28:05;100711.56;;;11.63;100.00
24666;BME280;29726;53.532;-1.478;2023-04-15T07:30:49;100714.66;;;11.64;100.00
24666;BME280;29726;53.532;-1.478;2023-04-15T07:33:33;100702.06;;;11.60;100.00
24666;BME280;29726;53.532;-1.478;2023-04-15T07:36:17;100671.94;;;11.37;100.00
24666;BME280;29726;53.532;-1.478;2023-04-15T07:39:01;100710.75;;;11.62;100.00
24666;BME280;29726;53.532;-1.478;2023-04-15T07:41:46;100713.72;;;11.58;100.00
24666;BME280;29726;53.532;-1.478;2023-04-15T07:44:31;100727.06;;;11.63;100.00
24666;BME280;29726;53.532;-1.478;2023-04-15T07:47:15;100735.28;;;11.67;100.00
24666;BME280;29726;53.532;-1.478;2023-04-15T07:49:59;100752.81;;;11.76;100.00
24666;BME280;29726;53.532;-1.478;2023-04-15T07:52:45;100760.75;;;11.78;100.00
24666;BME280;29726;53.532;-1.478;2023-04-15T07:55:29;100770.41;;;11.77;100.00
24666;BME280;29726;53.532;-1.478;2023-04-15T07:58:13;100756.91;;;11.66;100.00
24666;BME280;29726;53.532;-1.478;2023-04-15T08:00:57;100770.56;;;11.73;100.00
24666;BME280;29726;53.532;-1.478;2023-04-15T08:03:41;100770.41;;;11.77;100.00
24666;BME280;29726;53.532;-1.478;2023-04-15T08:06:25;100780.34;;;11.78;100.00
24666;BME280;29726;53.532;-1.478;2023-04-15T08:09:10;100796.94;;;11.81;100.00
24666;BME280;29726;53.532;-1.478;2023-04-15T08:11:54;100794.13;;;11.81;100.00
24666;BME280;29726;53.532;-1.478;2023-04-15T08:14:39;100783.44;;;11.80;100.00
24666;BME280;29726;53.532;-1.478;2023-04-15T08:17:23;100791.19;;;11.85;100.00
24666;BME280;29726;53.532;-1.478;2023-04-15T08:20:08;100793.84;;;11.88;100.00
24666;BME280;29726;53.532;-1.478;2023-04-15T08:22:53;100783.09;;;11.87;100.00
24666;BME280;29726;53.532;-1.478;2023-04-15T08:25:37;100789.63;;;11.93;100.00
24666;BME280;29726;53.532;-1.478;2023-04-15T08:28:20;100781.41;;;11.89;100.00
24666;BME280;29726;53.532;-1.478;2023-04-15T08:31:05;100789.78;;;11.89;100.00
24666;BME280;29726;53.532;-1.478;2023-04-15T08:33:49;100805.16;;;11.94;100.00
24666;BME280;29726;53.532;-1.478;2023-04-15T08:36:35;100804.69;;;11.95;100.00
24666;BME280;29726;53.532;-1.478;2023-04-15T08:39:19;100799.25;;;11.92;100.00
24666;BME280;29726;53.532;-1.478;2023-04-15T08:42:08;100810.44;;;12.01;100.00
24666;BME280;29726;53.532;-1.478;2023-04-15T08:44:54;100796.63;;;11.88;100.00
24666;BME280;29726;53.532;-1.478;2023-04-15T08:47:39;100810.75;;;11.94;100.00
24666;BME280;29726;53.532;-1.478;2023-04-15T08:50:28;100822.69;;;12.03;100.00
24666;BME280;29726;53.532;-1.478;2023-04-15T08:53:13;100830.63;;;12.05;100.00
24666;BME280;29726;53.532;-1.478;2023-04-15T08:56:02;100835.28;;;12.08;100.00
24666;BME280;29726;53.532;-1.478;2023-04-15T08:58:47;100831.56;;;12.11;100.00
24666;BME280;29726;53.532;-1.478;2023-04-15T09:01:31;100835.13;;;12.11;100.00
24666;BME280;29726;53.532;-1.478;2023-04-15T09:04:16;100852.53;;;12.15;100.00
24666;BME280;29726;53.532;-1.478;2023-04-15T09:07:00;100849.44;;;12.13;100.00
24666;BME280;29726;53.532;-1.478;2023-04-15T09:09:44;100856.09;;;12.16;100.00
24666;BME280;29726;53.532;-1.478;2023-04-15T09:12:29;100853.47;;;12.12;100.00
24666;BME280;29726;53.532;-1.478;2023-04-15T09:15:14;100869.31;;;12.24;100.00
24666;BME280;29726;53.532;-1.478;2023-04-15T09:17:58;100817.28;;;11.91;100.00
24666;BME280;29726;53.532;-1.478;2023-04-15T09:20:42;100856.59;;;12.14;100.00
24666;BME280;29726;53.532;-1.478;2023-04-15T09:23:26;100883.59;;;12.26;100.00
24666;BME280;29726;53.532;-1.478;2023-04-15T09:26:10;100887.34;;;12.32;100.00
24666;BME280;29726;53.532;-1.478;2023-04-15T09:29:04;100889.19;;;12.26;100.00
24666;BME280;29726;53.532;-1.478;2023-04-15T09:31:50;100900.41;;;12.35;100.00
24666;BME280;29726;53.532;-1.478;2023-04-15T09:34:35;100910.31;;;12.45;100.00
24666;BME280;29726;53.532;-1.478;2023-04-15T09:37:34;100918.53;;;12.58;100.00
24666;BME280;29726;53.532;-1.478;2023-04-15T09:40:31;100926.94;;;12.67;100.00
24666;BME280;29726;53.532;-1.478;2023-04-15T09:43:16;100926.09;;;12.75;100.00
24666;BME280;29726;53.532;-1.478;2023-04-15T09:46:01;100930.59;;;12.82;100.00
24666;BME280;29726;53.532;-1.478;2023-04-15T09:48:45;100928.41;;;12.86;100.00
24666;BME280;29726;53.532;-1.478;2023-04-15T09:51:34;100905.88;;;12.80;100.00
24666;BME280;29726;53.532;-1.478;2023-04-15T09:54:19;100941.56;;;13.12;100.00
24666;BME280;29726;53.532;-1.478;2023-04-15T09:57:05;100946.34;;;13.21;100.00
24666;BME280;29726;53.532;-1.478;2023-04-15T09:59:50;100925.31;;;13.25;100.00
24666;BME280;29726;53.532;-1.478;2023-04-15T10:02:34;100926.34;;;13.36;100.00
24666;BME280;29726;53.532;-1.478;2023-04-15T10:05:19;100934.31;;;13.52;100.00
24666;BME280;29726;53.532;-1.478;2023-04-15T10:08:04;100937.09;;;13.61;100.00
24666;BME280;29726;53.532;-1.478;2023-04-15T10:10:48;100922.38;;;13.66;100.00
24666;BME280;29726;53.532;-1.478;2023-04-15T10:13:35;100936.63;;;13.77;100.00
24666;BME280;29726;53.532;-1.478;2023-04-15T10:16:20;100932.88;;;13.80;100.00
24666;BME280;29726;53.532;-1.478;2023-04-15T10:19:07;100926.63;;;13.85;100.00
24666;BME280;29726;53.532;-1.478;2023-04-15T10:21:52;100927.78;;;13.93;100.00
24666;BME280;29726;53.532;-1.478;2023-04-15T10:24:37;100922.00;;;13.97;100.00
24666;BME280;29726;53.532;-1.478;2023-04-15T10:27:22;100933.25;;;14.11;100.00
24666;BME280;29726;53.532;-1.478;2023-04-15T10:30:07;100931.47;;;14.23;100.00
24666;BME280;29726;53.532;-1.478;2023-04-15T10:32:52;100933.41;;;14.31;100.00
24666;BME280;29726;53.532;-1.478;2023-04-15T10:35:37;100920.63;;;14.30;100.00
24666;BME280;29726;53.532;-1.478;2023-04-15T10:38:44;100926.16;;;14.39;100.00
24666;BME280;29726;53.532;-1.478;2023-04-15T10:41:29;100920.72;;;14.50;100.00
24666;BME280;29726;53.532;-1.478;2023-04-15T10:44:16;100927.31;;;14.62;100.00
24666;BME280;29726;53.532;-1.478;2023-04-15T10:47:06;100934.38;;;14.72;100.00
24666;BME280;29726;53.532;-1.478;2023-04-15T10:49:57;100931.75;;;14.83;100.00
24666;BME280;29726;53.532;-1.478;2023-04-15T10:52:42;100932.94;;;14.91;100.00
24666;BME280;29726;53.532;-1.478;2023-04-15T10:55:31;100934.34;;;15.00;100.00
24666;BME280;29726;53.532;-1.478;2023-04-15T10:58:15;100918.28;;;15.01;100.00
24666;BME280;29726;53.532;-1.478;2023-04-15T11:01:01;100920.38;;;15.06;100.00
24666;BME280;29726;53.532;-1.478;2023-04-15T11:03:45;100929.34;;;15.24;100.00
24666;BME280;29726;53.532;-1.478;2023-04-15T11:06:43;100938.00;;;15.35;100.00
24666;BME280;29726;53.532;-1.478;2023-04-15T11:09:32;100942.50;;;15.47;100.00
24666;BME280;29726;53.532;-1.478;2023-04-15T11:12:17;100941.31;;;15.54;100.00
24666;BME280;29726;53.532;-1.478;2023-04-15T11:18:16;100931.28;;;15.67;100.00
24666;BME280;29726;53.532;-1.478;2023-04-15T11:21:03;100921.28;;;15.66;100.00
24666;BME280;29726;53.532;-1.478;2023-04-15T11:23:47;100942.75;;;15.84;100.00
24666;BME280;29726;53.532;-1.478;2023-04-15T11:26:31;100926.28;;;15.77;100.00
24666;BME280;29726;53.532;-1.478;2023-04-15T11:29:18;100930.72;;;15.83;100.00
24666;BME280;29726;53.532;-1.478;2023-04-15T11:32:07;100932.34;;;15.90;100.00
24666;BME280;29726;53.532;-1.478;2023-04-15T11:34:52;100939.34;;;16.00;100.00
24666;BME280;29726;53.532;-1.478;2023-04-15T11:37:35;100955.63;;;16.10;100.00
24666;BME280;29726;53.532;-1.478;2023-04-15T11:40:25;100966.97;;;16.16;100.00
24666;BME280;29726;53.532;-1.478;2023-04-15T11:43:15;100958.50;;;16.16;100.00
24666;BME280;29726;53.532;-1.478;2023-04-15T11:46:01;100964.97;;;16.22;100.00
24666;BME280;29726;53.532;-1.478;2023-04-15T11:48:46;100962.44;;;16.24;100.00
24666;BME280;29726;53.532;-1.478;2023-04-15T11:51:32;100967.13;;;16.32;100.00
24666;BME280;29726;53.532;-1.478;2023-04-15T11:54:20;100960.16;;;16.28;100.00
24666;BME280;29726;53.532;-1.478;2023-04-15T11:57:03;100978.78;;;16.40;100.00
24666;BME280;29726;53.532;-1.478;2023-04-15T11:59:47;100979.06;;;16.42;100.00
24666;BME280;29726;53.532;-1.478;2023-04-15T12:02:31;100926.44;;;16.13;100.00
24666;BME280;29726;53.532;-1.478;2023-04-15T12:05:16;100961.72;;;16.29;100.00
24666;BME280;29726;53.532;-1.478;2023-04-15T12:08:00;100996.34;;;16.55;100.00
24666;BME280;29726;53.532;-1.478;2023-04-15T12:10:44;101000.25;;;16.57;100.00
24666;BME280;29726;53.532;-1.478;2023-04-15T12:13:28;101002.25;;;16.57;100.00
24666;BME280;29726;53.532;-1.478;2023-04-15T12:16:16;100995.34;;;16.58;100.00
24666;BME280;29726;53.532;-1.478;2023-04-15T12:19:04;101007.97;;;16.62;100.00
24666;BME280;29726;53.532;-1.478;2023-04-15T12:21:49;101012.69;;;16.71;100.00
24666;BME280;29726;53.532;-1.478;2023-04-15T12:24:35;101019.38;;;16.73;100.00
24666;BME280;29726;53.532;-1.478;2023-04-15T12:27:19;101002.22;;;16.76;100.00
24666;BME280;29726;53.532;-1.478;2023-04-15T12:30:04;100993.22;;;16.73;100.00
24666;BME280;29726;53.532;-1.478;2023-04-15T12:32:50;101002.75;;;16.80;100.00
24666;BME280;29726;53.532;-1.478;2023-04-15T12:35:35;101001.78;;;16.83;100.00
24666;BME280;29726;53.532;-1.478;2023-04-15T12:38:19;101003.16;;;16.93;100.00
24666;BME280;29726;53.532;-1.478;2023-04-15T12:41:03;100999.34;;;16.96;100.00
24666;BME280;29726;53.532;-1.478;2023-04-15T12:43:47;100995.78;;;17.01;100.00
24666;BME280;29726;53.532;-1.478;2023-04-15T12:46:31;100994.03;;;17.04;100.00
24666;BME280;29726;53.532;-1.478;2023-04-15T12:49:15;101004.63;;;17.14;100.00
24666;BME280;29726;53.532;-1.478;2023-04-15T12:52:03;100998.97;;;17.14;100.00
24666;BME280;29726;53.532;-1.478;2023-04-15T12:54:47;100997.25;;;17.22;100.00
24666;BME280;29726;53.532;-1.478;2023-04-15T12:57:31;101000.88;;;17.28;100.00
24666;BME280;29726;53.532;-1.478;2023-04-15T13:00:16;100973.53;;;17.09;100.00
24666;BME280;29726;53.532;-1.478;2023-04-15T13:03:00;100991.38;;;17.26;100.00
24666;BME280;29726;53.532;-1.478;2023-04-15T13:05:44;101011.81;;;17.41;100.00
24666;BME280;29726;53.532;-1.478;2023-04-15T13:08:28;101020.03;;;17.44;100.00
24666;BME280;29726;53.532;-1.478;2023-04-15T13:11:12;101016.72;;;17.46;100.00
24666;BME280;29726;53.532;-1.478;2023-04-15T13:13:56;101026.78;;;17.58;100.00
24666;BME280;29726;53.532;-1.478;2023-04-15T13:16:41;101023.97;;;17.58;100.00
24666;BME280;29726;53.532;-1.478;2023-04-15T13:19:25;101024.50;;;17.62;100.00
24666;BME280;29726;53.532;-1.478;2023-04-15T13:22:09;101020.13;;;17.61;100.00
24666;BME280;29726;53.532;-1.478;2023-04-15T13:24:54;101030.47;;;17.69;100.00
24666;BME280;29726;53.532;-1.478;2023-04-15T13:27:38;101028.97;;;17.74;100.00
24666;BME280;29726;53.532;-1.478;2023-04-15T13:30:22;101013.78;;;17.66;100.00
24666;BME280;29726;53.532;-1.478;2023-04-15T13:33:06;101040.84;;;17.83;100.00
24666;BME280;29726;53.532;-1.478;2023-04-15T13:35:50;101041.06;;;17.80;100.00
24666;BME280;29726;53.532;-1.478;2023-04-15T13:38:35;101035.69;;;17.82;100.00
24666;BME280;29726;53.532;-1.478;2023-04-15T13:41:19;101036.47;;;17.82;100.00
24666;BME280;29726;53.532;-1.478;2023-04-15T13:44:03;101056.56;;;17.95;100.00
24666;BME280;29726;53.532;-1.478;2023-04-15T13:46:48;101050.41;;;17.97;100.00
24666;BME280;29726;53.532;-1.478;2023-04-15T13:49:32;101058.66;;;18.00;100.00
24666;BME280;29726;53.532;-1.478;2023-04-15T13:52:16;101058.94;;;18.02;100.00
24666;BME280;29726;53.532;-1.478;2023-04-15T13:55:02;101067.94;;;18.06;100.00
24666;BME280;29726;53.532;-1.478;2023-04-15T13:57:46;101069.75;;;18.09;100.00
24666;BME280;29726;53.532;-1.478;2023-04-15T14:00:30;101072.56;;;18.09;100.00
24666;BME280;29726;53.532;-1.478;2023-04-15T14:03:14;101057.66;;;18.03;100.00
24666;BME280;29726;53.532;-1.478;2023-04-15T14:05:58;101038.84;;;17.95;100.00